Time;durP1;ratioP1;P1;durP2;ratioP2;P2;SDS_P1;SDS_P2;PMS_P1;PMS_P2;Temp;Humidity;BMP_temperature;BMP_pressure;BME280_temperature;BME280_humidity;BME280_pressure;Samples;Min_cycle;Max_cycle;Signal;HPM_P1;HPM_P2
2023/04/17 00:01:41;;;;;;;15.52;13.93;;;;;;;;;;5100918;28;20200;-83
2023/04/17 00:04:09;;;;;;;16.88;14.45;;;;;;;;;;5102081;28;20200;-84
2023/04/17 00:06:37;;;;;;;14.68;12.90;;;;;;;;;;5101406;28;20223;-83
2023/04/17 00:09:05;;;;;;;15.35;13.55;;;;;;;;;;5101245;28;20220;-83
2023/04/17 00:11:33;;;;;;;15.38;13.85;;;;;;;;;;5101485;28;20226;-84
2023/04/17 00:14:01;;;;;;;19.58;13.85;;;;;;;;;;5100195;28;20239;-84
2023/04/17 00:16:28;;;;;;;13.70;11.93;;;;;;;;;;5102006;28;20440;-84
2023/04/17 00:18:56;;;;;;;14.85;13.38;;;;;;;;;;5100485;28;20261;-83
2023/04/17 00:21:24;;;;;;;14.68;13.05;;;;;;;;;;5100873;28;20319;-83
2023/04/17 00:23:52;;;;;;;13.77;12.38;;;;;;;;;;5099946;28;20220;-83
2023/04/17 00:26:19;;;;;;;15.10;13.55;;;;;;;;;;5082796;28;20285;-81
2023/04/17 00:28:49;;;;;;;15.30;13.73;;;;;;;;;;5091862;28;20664;-83
2023/04/17 00:31:16;;;;;;;12.38;11.18;;;;;;;;;;5101320;28;20203;-83
2023/04/17 00:33:45;;;;;;;12.82;11.48;;;;;;;;;;5101138;28;20724;-83
2023/04/17 00:36:14;;;;;;;13.25;11.95;;;;;;;;;;5101038;28;20303;-83
2023/04/17 00:38:41;;;;;;;13.05;11.73;;;;;;;;;;5100899;28;20275;-83
2023/04/17 00:41:09;;;;;;;15.65;13.25;;;;;;;;;;5099998;28;20676;-84
2023/04/17 00:43:36;;;;;;;13.45;12.15;;;;;;;;;;5099835;28;20724;-83
2023/04/17 00:46:06;;;;;;;12.40;11.20;;;;;;;;;;5100169;28;20727;-83
2023/04/17 00:48:35;;;;;;;15.45;13.93;;;;;;;;;;5100109;28;20205;-83
2023/04/17 00:51:02;;;;;;;13.27;11.23;;;;;;;;;;5099104;28;20201;-83
2023/04/17 00:53:31;;;;;;;14.05;12.43;;;;;;;;;;5099875;28;20234;-84
2023/04/17 00:55:59;;;;;;;14.60;13.00;;;;;;;;;;5100613;28;20255;-83
2023/04/17 00:58:27;;;;;;;14.40;12.98;;;;;;;;;;5100574;28;20291;-83
2023/04/17 01:00:55;;;;;;;16.10;13.40;;;;;;;;;;5099131;28;20311;-84
2023/04/17 01:03:24;;;;;;;14.88;13.23;;;;;;;;;;5100659;28;20682;-83
2023/04/17 01:05:52;;;;;;;14.63;12.80;;;;;;;;;;5100808;28;20289;-83
2023/04/17 01:08:20;;;;;;;14.48;12.65;;;;;;;;;;5100906;28;20196;-84
2023/04/17 01:10:47;;;;;;;14.35;12.85;;;;;;;;;;5101632;28;20216;-83
2023/04/17 01:13:15;;;;;;;13.35;12.05;;;;;;;;;;5100640;28;20247;-84
2023/04/17 01:15:43;;;;;;;14.60;13.20;;;;;;;;;;5099418;28;20259;-83
2023/04/17 01:18:11;;;;;;;16.10;12.77;;;;;;;;;;5099596;28;20702;-83
2023/04/17 01:20:39;;;;;;;14.52;13.00;;;;;;;;;;5099051;28;20285;-84
2023/04/17 01:23:07;;;;;;;13.88;12.57;;;;;;;;;;5098939;28;20720;-83
2023/04/17 01:25:36;;;;;;;15.13;13.60;;;;;;;;;;5086820;28;20743;-84
2023/04/17 01:28:03;;;;;;;15.15;13.65;;;;;;;;;;5079194;28;20262;-84
2023/04/17 01:30:31;;;;;;;14.40;13.00;;;;;;;;;;5078916;28;20197;-83
2023/04/17 01:32:58;;;;;;;14.77;13.23;;;;;;;;;;5079503;28;20272;-83
2023/04/17 01:35:26;;;;;;;16.05;12.93;;;;;;;;;;5079116;28;20662;-82
2023/04/17 01:37:53;;;;;;;13.65;12.38;;;;;;;;;;5078713;28;20232;-84
2023/04/17 01:40:21;;;;;;;16.20;13.52;;;;;;;;;;5078796;28;20208;-84
2023/04/17 01:42:50;;;;;;;13.88;12.55;;;;;;;;;;5079715;28;20235;-83
2023/04/17 01:45:18;;;;;;;14.27;12.65;;;;;;;;;;5079208;28;20220;-82
2023/04/17 01:47:46;;;;;;;13.82;12.43;;;;;;;;;;5078480;28;20295;-84
2023/04/17 01:50:14;;;;;;;13.32;11.93;;;;;;;;;;5079354;28;20201;-83
2023/04/17 01:52:41;;;;;;;13.93;12.57;;;;;;;;;;5079890;28;20287;-83
2023/04/17 01:55:10;;;;;;;14.32;12.93;;;;;;;;;;5087369;28;20232;-83
2023/04/17 01:57:37;;;;;;;15.45;13.75;;;;;;;;;;5099624;28;20291;-83
2023/04/17 02:00:09;;;;;;;13.68;12.23;;;;;;;;;;5098770;28;20224;-83
2023/04/17 02:02:37;;;;;;;16.15;13.63;;;;;;;;;;5099972;28;20215;-83
2023/04/17 02:05:05;;;;;;;15.82;12.80;;;;;;;;;;5099566;28;20224;-83
2023/04/17 02:07:32;;;;;;;14.65;13.23;;;;;;;;;;5099335;28;20294;-84
2023/04/17 02:10:00;;;;;;;15.43;13.90;;;;;;;;;;5100188;28;20287;-83
2023/04/17 02:12:27;;;;;;;13.20;11.95;;;;;;;;;;5099725;28;20296;-83
2023/04/17 02:14:59;;;;;;;13.05;11.75;;;;;;;;;;5098955;28;20228;-83
2023/04/17 02:17:28;;;;;;;14.55;12.95;;;;;;;;;;5099219;28;20238;-83
2023/04/17 02:19:55;;;;;;;16.05;14.18;;;;;;;;;;5098537;28;20246;-84
2023/04/17 02:22:23;;;;;;;14.02;12.70;;;;;;;;;;5097621;28;20315;-83
2023/04/17 02:24:50;;;;;;;15.38;13.85;;;;;;;;;;5092296;28;20232;-84
2023/04/17 02:27:18;;;;;;;15.30;13.85;;;;;;;;;;5077726;28;20273;-85
2023/04/17 02:29:45;;;;;;;16.67;14.90;;;;;;;;;;5077673;28;20685;-84
2023/04/17 02:32:14;;;;;;;15.05;13.50;;;;;;;;;;5077624;28;20292;-84
2023/04/17 02:34:44;;;;;;;14.57;13.02;;;;;;;;;;5078243;28;20701;-84
2023/04/17 02:37:11;;;;;;;16.35;13.95;;;;;;;;;;5079112;28;20217;-84
2023/04/17 02:39:38;;;;;;;14.52;13.02;;;;;;;;;;5078144;28;20243;-84
2023/04/17 02:42:06;;;;;;;15.82;13.73;;;;;;;;;;5079930;28;20269;-84
2023/04/17 02:44:33;;;;;;;15.18;13.50;;;;;;;;;;5098569;28;20692;-84
2023/04/17 02:47:01;;;;;;;14.82;13.32;;;;;;;;;;5098207;28;20311;-84
2023/04/17 02:49:28;;;;;;;14.25;12.85;;;;;;;;;;5097671;28;20201;-84
2023/04/17 02:51:57;;;;;;;15.10;13.70;;;;;;;;;;5097786;28;20264;-84
2023/04/17 02:54:25;;;;;;;14.88;13.43;;;;;;;;;;5097631;28;20300;-84
2023/04/17 02:56:57;;;;;;;16.00;14.43;;;;;;;;;;5105065;22;20319;-85
2023/04/17 02:59:25;;;;;;;14.73;13.00;;;;;;;;;;5084669;28;20193;-85
2023/04/17 03:01:52;;;;;;;14.82;13.43;;;;;;;;;;5093838;28;20231;-85
2023/04/17 03:04:20;;;;;;;15.90;14.23;;;;;;;;;;5093343;28;20267;-85
2023/04/17 03:06:48;;;;;;;15.73;14.10;;;;;;;;;;5096402;28;20299;-85
2023/04/17 03:09:17;;;;;;;16.83;14.98;;;;;;;;;;5096951;28;20283;-86
2023/04/17 03:11:44;;;;;;;17.00;15.10;;;;;;;;;;5097505;28;20638;-86
2023/04/17 03:14:12;;;;;;;17.80;15.93;;;;;;;;;;5097568;28;20196;-86
2023/04/17 03:16:39;;;;;;;21.13;15.07;;;;;;;;;;5097040;28;20653;-86
2023/04/17 03:19:07;;;;;;;17.13;15.30;;;;;;;;;;5097308;28;20286;-86
2023/04/17 03:21:34;;;;;;;16.98;14.57;;;;;;;;;;5096398;28;20311;-86
2023/04/17 03:24:02;;;;;;;18.88;16.30;;;;;;;;;;5097124;28;20219;-86
2023/04/17 03:26:31;;;;;;;18.02;16.02;;;;;;;;;;5096176;28;20297;-86
2023/04/17 03:28:58;;;;;;;17.13;15.27;;;;;;;;;;5076508;28;20197;-86
2023/04/17 03:31:26;;;;;;;19.17;16.27;;;;;;;;;;5076239;28;20232;-86
2023/04/17 03:33:54;;;;;;;19.13;17.15;;;;;;;;;;5077041;28;20203;-86
2023/04/17 03:36:21;;;;;;;17.70;15.57;;;;;;;;;;5076786;28;20671;-85
2023/04/17 03:38:49;;;;;;;19.58;17.58;;;;;;;;;;5077460;28;20193;-86
2023/04/17 03:41:16;;;;;;;16.85;14.95;;;;;;;;;;5078359;28;20268;-87
2023/04/17 03:43:45;;;;;;;18.17;16.27;;;;;;;;;;5078987;28;20251;-86
2023/04/17 03:46:13;;;;;;;17.40;15.60;;;;;;;;;;5079207;28;20299;-86
2023/04/17 03:48:40;;;;;;;19.17;16.38;;;;;;;;;;5080379;28;20203;-86
2023/04/17 03:51:20;;;;;;;16.20;14.50;;;;;;;;;;5100626;28;20177;-87
2023/04/17 03:53:47;;;;;;;18.27;16.38;;;;;;;;;;5101436;28;20178;-85
2023/04/17 03:56:15;;;;;;;21.38;18.48;;;;;;;;;;5100799;28;20225;-86
2023/04/17 03:58:44;;;;;;;19.38;17.35;;;;;;;;;;5101477;28;20209;-88
2023/04/17 04:01:13;;;;;;;17.25;15.55;;;;;;;;;;5100823;28;20204;-87
2023/04/17 04:03:40;;;;;;;17.10;14.60;;;;;;;;;;5097331;28;20221;-86
2023/04/17 04:06:08;;;;;;;15.55;14.00;;;;;;;;;;5077381;28;20236;-85
2023/04/17 04:08:36;;;;;;;17.75;14.10;;;;;;;;;;5076680;28;20291;-86
2023/04/17 04:11:03;;;;;;;17.63;15.93;;;;;;;;;;5076173;28;20251;-85
2023/04/17 04:13:31;;;;;;;17.02;15.23;;;;;;;;;;5076325;28;20207;-85
2023/04/17 04:16:00;;;;;;;19.25;16.55;;;;;;;;;;5075518;28;20204;-85
2023/04/17 04:18:27;;;;;;;18.13;16.15;;;;;;;;;;5074810;28;20296;-86
2023/04/17 04:20:55;;;;;;;20.83;16.85;;;;;;;;;;5075637;28;20227;-86
2023/04/17 04:23:23;;;;;;;17.88;16.15;;;;;;;;;;5075840;28;20303;-86
2023/04/17 04:25:51;;;;;;;17.25;15.48;;;;;;;;;;5075585;28;20283;-86
2023/04/17 04:28:18;;;;;;;17.33;15.48;;;;;;;;;;5090742;28;20200;-87
2023/04/17 04:30:49;;;;;;;19.83;16.98;;;;;;;;;;5095894;28;20200;-85
2023/04/17 04:33:19;;;;;;;18.15;16.33;;;;;;;;;;5096372;28;20200;-86
2023/04/17 04:35:47;;;;;;;16.52;14.85;;;;;;;;;;5096184;28;20202;-85
2023/04/17 04:38:16;;;;;;;19.20;17.20;;;;;;;;;;5095532;28;20294;-86
2023/04/17 04:40:50;;;;;;;18.25;16.15;;;;;;;;;;5095969;28;20228;-85
2023/04/17 04:43:18;;;;;;;19.30;16.85;;;;;;;;;;5095870;28;20319;-86
2023/04/17 04:45:46;;;;;;;17.80;15.90;;;;;;;;;;5095740;28;20200;-86
2023/04/17 04:48:13;;;;;;;16.50;14.73;;;;;;;;;;5096312;28;20204;-88
2023/04/17 04:50:42;;;;;;;17.02;15.30;;;;;;;;;;5095913;28;20200;-86
2023/04/17 04:53:09;;;;;;;17.38;14.70;;;;;;;;;;5096291;28;20287;-86
2023/04/17 04:55:37;;;;;;;17.55;15.73;;;;;;;;;;5096048;28;20676;-86
2023/04/17 04:58:04;;;;;;;18.70;15.98;;;;;;;;;;5083158;28;20316;-85
2023/04/17 05:00:33;;;;;;;20.13;16.05;;;;;;;;;;5076165;28;20227;-86
2023/04/17 05:03:01;;;;;;;15.98;14.38;;;;;;;;;;5075900;28;20231;-86
2023/04/17 05:05:28;;;;;;;16.83;13.95;;;;;;;;;;5076386;28;20197;-86
2023/04/17 05:07:57;;;;;;;16.48;14.88;;;;;;;;;;5075726;28;20320;-85
2023/04/17 05:10:25;;;;;;;19.52;16.52;;;;;;;;;;5076223;28;20251;-86
2023/04/17 05:12:52;;;;;;;17.85;16.00;;;;;;;;;;5075710;28;20231;-86
2023/04/17 05:15:20;;;;;;;19.70;16.92;;;;;;;;;;5076559;28;20193;-85
2023/04/17 05:17:48;;;;;;;18.52;16.73;;;;;;;;;;5076767;28;20891;-85
2023/04/17 05:20:15;;;;;;;21.67;16.20;;;;;;;;;;5075947;28;20228;-85
2023/04/17 05:22:43;;;;;;;19.65;17.63;;;;;;;;;;5076645;28;20256;-86
2023/04/17 05:25:12;;;;;;;17.40;15.52;;;;;;;;;;5076280;28;20224;-85
2023/04/17 05:27:39;;;;;;;21.30;18.90;;;;;;;;;;5086221;28;20303;-85
2023/04/17 05:30:09;;;;;;;19.48;17.35;;;;;;;;;;5097794;28;20572;-86
2023/04/17 05:32:36;;;;;;;22.80;17.52;;;;;;;;;;5099170;28;20212;-81
2023/04/17 05:35:04;;;;;;;22.02;18.67;;;;;;;;;;5103378;28;20239;-82
2023/04/17 05:37:32;;;;;;;21.23;18.92;;;;;;;;;;5101843;28;20664;-81
2023/04/17 05:40:00;;;;;;;21.48;17.95;;;;;;;;;;5102128;28;20219;-82
2023/04/17 05:42:29;;;;;;;19.92;16.48;;;;;;;;;;5102750;28;20695;-83
2023/04/17 05:44:56;;;;;;;21.83;19.23;;;;;;;;;;5102782;28;20247;-82
2023/04/17 05:47:23;;;;;;;20.98;17.60;;;;;;;;;;5100844;28;20306;-82
2023/04/17 05:49:56;;;;;;;21.13;17.80;;;;;;;;;;5114417;22;20311;-84
2023/04/17 05:52:23;;;;;;;20.70;18.38;;;;;;;;;;5090546;28;20208;-83
2023/04/17 05:54:51;;;;;;;20.70;17.92;;;;;;;;;;5095085;28;20664;-85
2023/04/17 05:57:18;;;;;;;20.25;18.10;;;;;;;;;;5088648;28;20228;-84
2023/04/17 05:59:48;;;;;;;19.42;17.42;;;;;;;;;;5074370;28;20260;-84
2023/04/17 06:02:15;;;;;;;21.58;17.58;;;;;;;;;;5073851;28;20281;-85
2023/04/17 06:04:43;;;;;;;21.27;18.58;;;;;;;;;;5089311;28;20223;-83
2023/04/17 06:07:11;;;;;;;18.20;16.30;;;;;;;;;;5093666;28;20295;-84
2023/04/17 06:09:39;;;;;;;19.17;16.10;;;;;;;;;;5073406;28;20776;-84
2023/04/17 06:12:14;;;;;;;18.23;16.33;;;;;;;;;;5073100;28;20201;-84
2023/04/17 06:14:42;;;;;;;19.50;16.98;;;;;;;;;;5073499;28;20330;-85
2023/04/17 06:17:11;;;;;;;22.17;19.60;;;;;;;;;;5073152;28;20197;-84
2023/04/17 06:19:38;;;;;;;19.92;17.75;;;;;;;;;;5073195;28;20232;-84
2023/04/17 06:22:06;;;;;;;18.75;16.65;;;;;;;;;;5072494;28;20200;-83
2023/04/17 06:24:34;;;;;;;20.27;17.77;;;;;;;;;;5072145;28;20228;-83
2023/04/17 06:27:02;;;;;;;19.58;17.50;;;;;;;;;;5075789;28;20201;-84
2023/04/17 06:29:30;;;;;;;22.45;20.15;;;;;;;;;;5092653;28;20220;-84
2023/04/17 06:31:57;;;;;;;21.20;17.67;;;;;;;;;;5092423;28;20287;-83
2023/04/17 06:34:26;;;;;;;20.63;17.60;;;;;;;;;;5092324;28;20212;-84
2023/04/17 06:36:54;;;;;;;20.13;17.85;;;;;;;;;;5092783;28;20739;-83
2023/04/17 06:39:21;;;;;;;20.05;17.98;;;;;;;;;;5091630;28;20228;-84
2023/04/17 06:41:49;;;;;;;17.88;16.08;;;;;;;;;;5095715;28;20200;-84
2023/04/17 06:44:17;;;;;;;21.45;18.30;;;;;;;;;;5096417;28;20220;-84
2023/04/17 06:46:44;;;;;;;20.50;18.17;;;;;;;;;;5096253;28;20235;-82
2023/04/17 06:49:12;;;;;;;18.45;16.45;;;;;;;;;;5096193;28;20289;-85
2023/04/17 06:51:44;;;;;;;17.92;15.65;;;;;;;;;;5096368;28;20188;-84
2023/04/17 06:54:12;;;;;;;20.23;16.25;;;;;;;;;;5096688;28;20185;-84
2023/04/17 06:56:40;;;;;;;21.70;17.92;;;;;;;;;;5096200;28;20220;-85
2023/04/17 06:59:07;;;;;;;19.23;16.30;;;;;;;;;;5095940;28;20708;-85
2023/04/17 07:01:36;;;;;;;19.08;17.10;;;;;;;;;;5096111;28;20220;-83
2023/04/17 07:09:21;;;;;;;15.32;13.77;;;;;;;;;;5056931;27;1956970;-82
2023/04/17 07:11:48;;;;;;;15.88;14.25;;;;;;;;;;5110247;28;20205;-83
2023/04/17 07:14:16;;;;;;;16.90;15.20;;;;;;;;;;5110511;28;20200;-83
2023/04/17 07:16:43;;;;;;;18.42;16.58;;;;;;;;;;5110082;28;20208;-83
2023/04/17 07:19:11;;;;;;;17.15;15.10;;;;;;;;;;5112010;28;20314;-82
2023/04/17 07:21:38;;;;;;;17.38;15.57;;;;;;;;;;5110335;28;20642;-85
2023/04/17 07:24:06;;;;;;;19.60;15.02;;;;;;;;;;5110557;28;20287;-85
2023/04/17 07:26:36;;;;;;;14.80;13.25;;;;;;;;;;5110419;28;20233;-85
2023/04/17 07:29:04;;;;;;;14.68;13.00;;;;;;;;;;5090126;28;20228;-85
2023/04/17 07:31:32;;;;;;;14.15;12.68;;;;;;;;;;5090392;28;20205;-85
2023/04/17 07:34:00;;;;;;;13.35;11.98;;;;;;;;;;5090053;28;20636;-84
2023/04/17 07:36:28;;;;;;;14.18;12.73;;;;;;;;;;5090573;28;20577;-84
2023/04/17 07:38:56;;;;;;;14.68;12.50;;;;;;;;;;5089519;28;20598;-85
2023/04/17 07:41:23;;;;;;;12.65;10.02;;;;;;;;;;5090172;28;20231;-84
2023/04/17 07:43:52;;;;;;;13.00;11.10;;;;;;;;;;5090122;28;20287;-84
2023/04/17 07:46:20;;;;;;;10.23;9.23;;;;;;;;;;5089884;28;20675;-83
2023/04/17 07:48:47;;;;;;;12.07;9.85;;;;;;;;;;5091578;28;20656;-80
2023/04/17 07:51:15;;;;;;;12.43;11.07;;;;;;;;;;5111098;28;20199;-82
2023/04/17 07:53:43;;;;;;;11.88;10.70;;;;;;;;;;5110009;28;20212;-82
2023/04/17 07:56:11;;;;;;;12.70;11.35;;;;;;;;;;5110599;28;20562;-83
2023/04/17 07:58:39;;;;;;;13.90;10.10;;;;;;;;;;5110948;28;20296;-82
2023/04/17 08:01:08;;;;;;;12.57;11.30;;;;;;;;;;5110030;28;20287;-81
2023/04/17 08:03:39;;;;;;;8.98;8.07;;;;;;;;;;5111020;28;20232;-82
2023/04/17 08:06:07;;;;;;;10.38;9.35;;;;;;;;;;5107821;28;20200;-82
2023/04/17 08:08:35;;;;;;;11.02;9.93;;;;;;;;;;5109390;28;20239;-83
2023/04/17 08:11:02;;;;;;;9.77;8.88;;;;;;;;;;5103011;28;20245;-82
2023/04/17 08:13:31;;;;;;;10.48;9.07;;;;;;;;;;5108174;28;20279;-82
2023/04/17 08:16:00;;;;;;;10.05;9.05;;;;;;;;;;5110477;28;20210;-82
2023/04/17 08:18:30;;;;;;;11.77;10.55;;;;;;;;;;5109437;28;20641;-80
2023/04/17 08:20:58;;;;;;;11.73;9.10;;;;;;;;;;5095769;28;20208;-83
2023/04/17 08:23:25;;;;;;;9.85;8.57;;;;;;;;;;5097451;28;20235;-83
2023/04/17 08:25:53;;;;;;;7.65;6.95;;;;;;;;;;5090695;28;20196;-83
2023/04/17 08:28:21;;;;;;;7.13;6.30;;;;;;;;;;5095502;28;20774;-82
2023/04/17 08:30:48;;;;;;;6.53;5.93;;;;;;;;;;5096362;28;20287;-82
2023/04/17 08:33:17;;;;;;;9.65;8.55;;;;;;;;;;5097830;28;20632;-81
2023/04/17 08:35:46;;;;;;;9.32;8.43;;;;;;;;;;5097324;28;20217;-83
2023/04/17 08:38:13;;;;;;;9.35;8.55;;;;;;;;;;5097892;28;20224;-81
2023/04/17 08:40:42;;;;;;;9.98;8.80;;;;;;;;;;5089812;28;20189;-83
2023/04/17 08:43:15;;;;;;;9.25;8.13;;;;;;;;;;5087868;28;20197;-82
2023/04/17 08:45:52;;;;;;;9.38;8.48;;;;;;;;;;5086414;28;20205;-84
2023/04/17 08:48:20;;;;;;;9.82;7.95;;;;;;;;;;5086988;28;20236;-83
2023/04/17 08:50:51;;;;;;;9.90;8.88;;;;;;;;;;5089960;28;20201;-82
2023/04/17 08:53:20;;;;;;;9.35;8.30;;;;;;;;;;5087034;28;20197;-82
2023/04/17 08:55:48;;;;;;;9.05;8.15;;;;;;;;;;5086734;28;20192;-82
2023/04/17 08:58:16;;;;;;;11.10;8.68;;;;;;;;;;5090015;28;20220;-81
2023/04/17 09:00:45;;;;;;;9.85;8.85;;;;;;;;;;5086762;28;20653;-80
2023/04/17 09:03:14;;;;;;;7.72;7.00;;;;;;;;;;5084045;28;20201;-82
2023/04/17 09:05:44;;;;;;;9.57;7.88;;;;;;;;;;5084020;28;20215;-80
2023/04/17 09:08:16;;;;;;;8.07;7.28;;;;;;;;;;5078240;28;20687;-82
2023/04/17 09:10:45;;;;;;;6.57;5.97;;;;;;;;;;5083487;28;20211;-82
2023/04/17 09:13:16;;;;;;;7.43;6.32;;;;;;;;;;5082313;28;20199;-81
2023/04/17 09:15:45;;;;;;;7.68;6.85;;;;;;;;;;5073897;28;20228;-83
2023/04/17 09:18:26;;;;;;;6.50;5.90;;;;;;;;;;5074002;28;20225;-82
2023/04/17 09:20:56;;;;;;;7.03;6.43;;;;;;;;;;5092831;28;20222;-82
2023/04/17 09:23:26;;;;;;;6.90;6.13;;;;;;;;;;5093705;28;20771;-83
2023/04/17 09:28:14;;;;;;;6.63;6.03;;;;;;;;;;5066907;27;1924560;-83
2023/04/17 09:30:43;;;;;;;9.48;6.97;;;;;;;;;;5110344;28;20176;-82
2023/04/17 09:33:11;;;;;;;8.15;6.72;;;;;;;;;;5110863;28;20295;-84
2023/04/17 09:35:39;;;;;;;6.88;5.90;;;;;;;;;;5111169;28;20198;-84
2023/04/17 09:38:07;;;;;;;5.43;4.93;;;;;;;;;;5110978;28;20226;-84
2023/04/17 09:40:39;;;;;;;7.05;6.35;;;;;;;;;;5111191;28;20204;-83
2023/04/17 09:43:09;;;;;;;6.75;6.15;;;;;;;;;;5110958;28;20243;-84
2023/04/17 10:06:36;;;;;;;7.07;6.32;;;;;;;;;;5070811;27;1924898;-84
2023/04/17 10:09:04;;;;;;;6.93;6.25;;;;;;;;;;5100285;28;20571;-84
2023/04/17 10:11:37;;;;;;;6.28;5.47;;;;;;;;;;5090340;28;20207;-84
2023/04/17 10:15:35;;;;;;;6.85;6.15;;;;;;;;;;5131412;27;20478;-83
2023/04/17 10:18:22;;;;;;;8.20;6.97;;;;;;;;;;5132057;27;20827;-83
2023/04/17 10:20:51;;;;;;;8.43;7.50;;;;;;;;;;5113467;27;20690;-83
2023/04/17 10:23:31;;;;;;;7.28;6.57;;;;;;;;;;5111988;28;20195;-82
2023/04/17 11:10:07;;;;;;;5.10;4.40;;;;;;;;;;5003565;28;20255;-83
2023/04/17 11:12:35;;;;;;;4.55;4.10;;;;;;;;;;5024762;28;20208;-85
2023/04/17 11:15:03;;;;;;;5.85;4.85;;;;;;;;;;5025334;28;20273;-83
2023/04/17 11:17:30;;;;;;;3.65;3.33;;;;;;;;;;5009410;28;20233;-84
2023/04/17 11:19:58;;;;;;;7.78;5.22;;;;;;;;;;4990895;28;20272;-84
2023/04/17 11:22:27;;;;;;;5.38;4.53;;;;;;;;;;4990627;28;20307;-84
2023/04/17 11:24:54;;;;;;;5.35;4.28;;;;;;;;;;5006966;28;20200;-86
2023/04/17 11:27:23;;;;;;;5.13;4.35;;;;;;;;;;4978437;28;20287;-83
2023/04/17 11:29:50;;;;;;;4.95;4.13;;;;;;;;;;4976071;28;20681;-84
2023/04/17 11:32:18;;;;;;;6.40;4.40;;;;;;;;;;4978681;28;20204;-86
2023/04/17 11:34:45;;;;;;;5.30;4.15;;;;;;;;;;4977815;28;20312;-84
2023/04/17 11:37:14;;;;;;;4.07;3.70;;;;;;;;;;4978343;28;20676;-85
2023/04/17 11:39:43;;;;;;;5.13;4.30;;;;;;;;;;4976996;28;20699;-84
2023/04/17 11:44:43;;;;;;;4.18;3.85;;;;;;;;;;5001063;28;20220;-85
2023/04/17 11:47:11;;;;;;;4.15;3.85;;;;;;;;;;4994764;28;20201;-83
2023/04/17 11:49:39;;;;;;;4.07;3.05;;;;;;;;;;4988730;28;20287;-82
2023/04/17 11:52:06;;;;;;;3.30;3.08;;;;;;;;;;4987974;28;20310;-83
2023/04/17 11:54:37;;;;;;;4.28;3.78;;;;;;;;;;4998823;28;20223;-83
2023/04/17 11:57:06;;;;;;;4.25;3.85;;;;;;;;;;4999986;28;20218;-83
2023/04/17 11:59:36;;;;;;;3.70;3.40;;;;;;;;;;5008428;28;20259;-82
2023/04/17 12:02:05;;;;;;;5.07;4.57;;;;;;;;;;5020261;28;20275;-82
2023/04/17 12:04:33;;;;;;;4.72;4.18;;;;;;;;;;5019729;28;20183;-82
2023/04/17 12:07:01;;;;;;;3.92;3.50;;;;;;;;;;5019257;28;20200;-81
2023/04/17 12:09:30;;;;;;;4.68;4.28;;;;;;;;;;5019829;28;20223;-82
2023/04/17 12:11:58;;;;;;;4.47;3.83;;;;;;;;;;5020023;28;20272;-82
2023/04/17 12:14:25;;;;;;;4.18;3.88;;;;;;;;;;5014822;28;20295;-85
2023/04/17 12:16:53;;;;;;;5.10;3.47;;;;;;;;;;5012773;28;20203;-85
2023/04/17 12:19:24;;;;;;;5.30;4.82;;;;;;;;;;5011025;28;20214;-82
2023/04/17 12:21:53;;;;;;;4.03;3.72;;;;;;;;;;5010240;28;20259;-85
2023/04/17 12:24:22;;;;;;;4.03;3.58;;;;;;;;;;5010551;28;20211;-85
2023/04/17 12:26:51;;;;;;;4.97;3.90;;;;;;;;;;5011172;28;20211;-85
2023/04/17 12:29:19;;;;;;;3.67;3.30;;;;;;;;;;5009118;28;20227;-84
2023/04/17 12:31:46;;;;;;;4.57;4.18;;;;;;;;;;5008859;28;20648;-84
2023/04/17 12:34:14;;;;;;;4.90;4.45;;;;;;;;;;5007886;28;20211;-84
2023/04/17 12:36:42;;;;;;;4.43;4.05;;;;;;;;;;5008251;28;20821;-83
2023/04/17 12:39:11;;;;;;;4.32;3.92;;;;;;;;;;5007649;28;20235;-84
2023/04/17 12:41:39;;;;;;;4.28;3.88;;;;;;;;;;5007941;28;20272;-83
2023/04/17 12:44:06;;;;;;;4.60;4.20;;;;;;;;;;5007275;28;20238;-85
2023/04/17 12:46:34;;;;;;;4.90;4.35;;;;;;;;;;5007191;28;20211;-84
2023/04/17 12:49:02;;;;;;;5.75;5.15;;;;;;;;;;5005493;28;20675;-84
2023/04/17 12:51:29;;;;;;;4.45;4.05;;;;;;;;;;5005266;28;20204;-83
2023/04/17 12:53:58;;;;;;;4.40;3.72;;;;;;;;;;5006365;28;20664;-83
2023/04/17 12:56:26;;;;;;;8.50;5.68;;;;;;;;;;5004677;28;20263;-83
2023/04/17 12:58:54;;;;;;;5.25;4.82;;;;;;;;;;5005349;28;20214;-82
2023/04/17 13:01:21;;;;;;;5.20;4.70;;;;;;;;;;5003497;28;20242;-83
2023/04/17 13:03:49;;;;;;;7.72;6.75;;;;;;;;;;5003623;28;20251;-84
2023/04/17 13:06:16;;;;;;;5.57;5.15;;;;;;;;;;5002662;28;20230;-83
2023/04/17 13:08:44;;;;;;;5.03;4.07;;;;;;;;;;5002119;28;20233;-83
2023/04/17 13:11:13;;;;;;;4.45;4.10;;;;;;;;;;5001276;28;20224;-83
2023/04/17 13:13:40;;;;;;;6.25;4.88;;;;;;;;;;5002729;28;20310;-82
2023/04/17 13:16:09;;;;;;;4.50;4.10;;;;;;;;;;5001965;28;20318;-83
2023/04/17 13:18:37;;;;;;;6.93;5.03;;;;;;;;;;5002770;28;20203;-83
2023/04/17 13:21:04;;;;;;;5.57;4.93;;;;;;;;;;5001655;28;20290;-83
2023/04/17 13:23:32;;;;;;;4.70;4.20;;;;;;;;;;5000680;28;20227;-82
2023/04/17 13:25:59;;;;;;;5.40;4.90;;;;;;;;;;4999578;28;20287;-83
2023/04/17 13:28:28;;;;;;;5.55;5.07;;;;;;;;;;5000591;28;20283;-82
2023/04/17 13:30:56;;;;;;;5.15;4.72;;;;;;;;;;5000810;28;20640;-82
2023/04/17 13:33:23;;;;;;;6.68;5.90;;;;;;;;;;5000335;28;20247;-83
2023/04/17 13:35:52;;;;;;;5.90;5.28;;;;;;;;;;4999441;28;20602;-82
2023/04/17 13:38:19;;;;;;;5.75;5.25;;;;;;;;;;5000058;28;20243;-82
2023/04/17 13:40:46;;;;;;;5.30;4.78;;;;;;;;;;5006563;28;20223;-83
2023/04/17 13:43:14;;;;;;;6.35;5.40;;;;;;;;;;5008382;28;20254;-83
2023/04/17 13:45:43;;;;;;;7.28;5.75;;;;;;;;;;5009498;28;20211;-83
2023/04/17 13:48:10;;;;;;;6.40;5.38;;;;;;;;;;5007231;28;20231;-83
2023/04/17 13:50:38;;;;;;;7.20;6.53;;;;;;;;;;5006846;28;20203;-83
2023/04/17 13:53:05;;;;;;;7.47;6.70;;;;;;;;;;5005948;28;20232;-83
2023/04/17 13:55:33;;;;;;;7.30;6.60;;;;;;;;;;5004508;28;20290;-83
2023/04/17 13:58:00;;;;;;;6.35;5.47;;;;;;;;;;5003762;28;20207;-82
2023/04/17 14:00:28;;;;;;;6.80;5.70;;;;;;;;;;5003132;28;20200;-83
2023/04/17 14:02:57;;;;;;;6.55;5.90;;;;;;;;;;5001126;28;20270;-83
2023/04/17 14:05:24;;;;;;;8.73;7.43;;;;;;;;;;5001399;28;20640;-83
2023/04/17 14:07:52;;;;;;;6.85;5.88;;;;;;;;;;5001161;28;20251;-81
2023/04/17 14:10:19;;;;;;;5.63;5.13;;;;;;;;;;4994656;28;20320;-80
2023/04/17 14:12:47;;;;;;;6.57;5.97;;;;;;;;;;4994893;28;20857;-81
2023/04/17 14:15:15;;;;;;;6.00;5.47;;;;;;;;;;4994647;28;20210;-82
2023/04/17 14:17:42;;;;;;;5.75;5.25;;;;;;;;;;4994360;28;20230;-81
2023/04/17 14:20:13;;;;;;;5.40;4.93;;;;;;;;;;4993791;28;20204;-81
2023/04/17 14:22:41;;;;;;;6.55;4.88;;;;;;;;;;4994629;28;20302;-82
2023/04/17 14:25:09;;;;;;;4.40;4.00;;;;;;;;;;4994419;28;20282;-80
2023/04/17 14:27:37;;;;;;;7.20;4.50;;;;;;;;;;4993972;28;20207;-82
2023/04/17 14:30:05;;;;;;;4.18;3.80;;;;;;;;;;4994601;28;20286;-81
2023/04/17 14:32:33;;;;;;;5.25;4.72;;;;;;;;;;4994348;28;20719;-85
2023/04/17 14:35:00;;;;;;;5.43;4.82;;;;;;;;;;4995007;28;20298;-83
2023/04/17 14:37:29;;;;;;;5.38;4.57;;;;;;;;;;4995180;28;20310;-83
2023/04/17 14:39:57;;;;;;;6.65;4.72;;;;;;;;;;4994313;28;20204;-84
2023/04/17 14:42:24;;;;;;;7.18;5.43;;;;;;;;;;4995608;28;20778;-80
2023/04/17 14:44:52;;;;;;;7.78;5.15;;;;;;;;;;4996023;28;20200;-80
2023/04/17 14:47:19;;;;;;;7.57;5.18;;;;;;;;;;4993321;28;20311;-79
2023/04/17 14:49:47;;;;;;;5.60;4.55;;;;;;;;;;4993416;28;20294;-81
2023/04/17 14:52:14;;;;;;;5.97;5.35;;;;;;;;;;4994378;28;20270;-82
2023/04/17 14:54:43;;;;;;;5.50;5.00;;;;;;;;;;4993470;28;20250;-82
2023/04/17 14:57:10;;;;;;;8.32;5.65;;;;;;;;;;4994053;28;20271;-81
2023/04/17 14:59:38;;;;;;;5.95;5.45;;;;;;;;;;4993336;28;20291;-80
2023/04/17 15:02:06;;;;;;;4.82;4.38;;;;;;;;;;4996115;28;20235;-81
2023/04/17 15:04:33;;;;;;;5.93;4.75;;;;;;;;;;4996985;28;20265;-80
2023/04/17 15:07:01;;;;;;;4.95;4.50;;;;;;;;;;4995776;28;20214;-80
2023/04/17 15:09:28;;;;;;;4.80;4.30;;;;;;;;;;4996859;28;20676;-80
2023/04/17 15:11:57;;;;;;;5.03;4.60;;;;;;;;;;4998599;28;20274;-79
2023/04/17 15:14:25;;;;;;;4.63;4.20;;;;;;;;;;5021126;28;20264;-78
2023/04/17 15:16:53;;;;;;;5.03;4.55;;;;;;;;;;5021000;28;20239;-80
2023/04/17 15:19:20;;;;;;;5.20;4.70;;;;;;;;;;5020638;28;20202;-79
2023/04/17 15:21:48;;;;;;;6.15;4.97;;;;;;;;;;5020747;28;20230;-79
2023/04/17 15:24:15;;;;;;;4.75;4.35;;;;;;;;;;5021134;28;20184;-80
2023/04/17 15:26:42;;;;;;;5.47;4.97;;;;;;;;;;5016053;28;20212;-81
2023/04/17 15:29:11;;;;;;;5.13;4.22;;;;;;;;;;5002782;28;20203;-80
2023/04/17 15:31:39;;;;;;;4.93;4.20;;;;;;;;;;4999705;28;20291;-80
2023/04/17 15:34:06;;;;;;;5.32;4.82;;;;;;;;;;4997563;28;20210;-80
2023/04/17 15:36:34;;;;;;;5.55;5.00;;;;;;;;;;4998221;28;20755;-80
2023/04/17 15:39:01;;;;;;;4.30;3.65;;;;;;;;;;4997719;28;20298;-80
2023/04/17 15:41:29;;;;;;;5.00;4.50;;;;;;;;;;5000673;28;20266;-81
2023/04/17 15:43:56;;;;;;;4.85;4.35;;;;;;;;;;4999138;28;20298;-80
2023/04/17 15:46:25;;;;;;;7.93;4.63;;;;;;;;;;5001087;28;20294;-81
2023/04/17 15:48:52;;;;;;;5.60;4.15;;;;;;;;;;4998588;28;20295;-81
2023/04/17 15:51:20;;;;;;;4.78;3.63;;;;;;;;;;4998293;28;20290;-81